Terminal Aerodrome Forecast
Issued by NWS

Home | Current Version | Previous Version | Text Only | Print | Product List | Glossary On
Versions: 1 2 3 4 5 6 7 8 9 10 11 12 13
260
FTUS41 KPHI 250524
TAFPNE
TAF
KPNE 250524Z 2506/2606 VRB02KT P6SM SKC
     FM251400 08006KT P6SM SKC
     FM252200 11006KT P6SM SKC=

USA.gov is the U.S. government's official web portal to all federal, state and local government web resources and services.